createdAt,value
2018-09-25T00:01:39.568Z,1.13
2018-09-25T00:04:12.693Z,1.07
2018-09-25T00:06:45.463Z,1.23
2018-09-25T00:09:18.512Z,1.43
2018-09-25T00:11:51.569Z,1.27
2018-09-25T00:14:25.631Z,1.40
2018-09-25T00:16:58.691Z,1.13
2018-09-25T00:19:32.483Z,1.37
2018-09-25T00:22:05.625Z,1.10
2018-09-25T00:24:39.829Z,1.00
2018-09-25T00:27:13.470Z,1.90
2018-09-25T00:29:46.486Z,1.30
2018-09-25T00:32:19.239Z,3.80
2018-09-25T00:34:52.190Z,1.37
2018-09-25T00:37:25.629Z,1.07
2018-09-25T00:39:58.651Z,1.17
2018-09-25T00:42:31.946Z,1.90
2018-09-25T00:45:05.638Z,1.90
2018-09-25T00:47:39.050Z,1.67
2018-09-25T00:50:12.059Z,1.67
2018-09-25T00:52:45.130Z,2.27
2018-09-25T00:55:18.627Z,1.50
2018-09-25T00:57:51.671Z,1.17
2018-09-25T01:00:24.942Z,1.30
2018-09-25T01:02:58.023Z,1.30
2018-09-25T01:05:31.143Z,1.07
2018-09-25T01:08:04.174Z,1.07
2018-09-25T01:10:37.289Z,1.87
2018-09-25T01:13:10.515Z,1.23
2018-09-25T01:15:43.717Z,1.03
2018-09-25T01:18:17.159Z,2.10
2018-09-25T01:20:50.316Z,1.47
2018-09-25T01:23:23.068Z,0.90
2018-09-25T01:25:56.025Z,1.40
2018-09-25T01:28:29.602Z,1.00
2018-09-25T01:31:02.483Z,1.57
2018-09-25T01:33:35.775Z,1.67
2018-09-25T01:36:08.813Z,1.53
2018-09-25T01:38:41.828Z,1.17
2018-09-25T01:41:15.337Z,1.70
2018-09-25T01:43:49.238Z,0.70
2018-09-25T01:46:22.179Z,1.10
2018-09-25T01:48:55.110Z,1.00
2018-09-25T01:51:28.102Z,1.57
2018-09-25T01:54:01.610Z,1.80
2018-09-25T01:56:35.646Z,1.40
2018-09-25T01:59:08.938Z,1.40
2018-09-25T02:01:42.965Z,1.57
2018-09-25T02:04:16.252Z,1.37
2018-09-25T02:06:50.186Z,1.67
2018-09-25T02:09:23.785Z,2.80
2018-09-25T02:11:57.060Z,3.17
2018-09-25T02:14:30.181Z,1.63
2018-09-25T02:17:03.378Z,1.33
2018-09-25T02:19:37.046Z,1.20
2018-09-25T02:22:10.029Z,1.57
2018-09-25T02:24:44.315Z,1.20
2018-09-25T02:27:17.962Z,0.80
2018-09-25T02:29:51.848Z,1.53
2018-09-25T02:32:24.985Z,0.90
2018-09-25T02:34:58.179Z,1.07
2018-09-25T02:37:32.122Z,1.53
2018-09-25T02:40:05.010Z,1.63
2018-09-25T02:42:38.591Z,1.10
2018-09-25T02:45:11.477Z,1.90
2018-09-25T02:47:44.336Z,1.27
2018-09-25T02:50:17.394Z,1.70
2018-09-25T02:52:50.628Z,0.80
2018-09-25T02:55:23.752Z,1.30
2018-09-25T02:57:57.455Z,1.20
2018-09-25T03:00:30.439Z,1.97
2018-09-25T03:03:04.588Z,0.70
2018-09-25T03:05:37.687Z,1.77
2018-09-25T03:08:10.531Z,1.23
2018-09-25T03:10:44.070Z,1.40
2018-09-25T03:13:17.132Z,1.13
2018-09-25T03:15:50.769Z,1.50
2018-09-25T03:18:23.686Z,1.50
2018-09-25T03:20:56.824Z,1.33
2018-09-25T03:23:29.815Z,2.40
2018-09-25T03:26:02.879Z,1.20
2018-09-25T03:28:35.904Z,1.30
2018-09-25T03:31:09.868Z,1.10
2018-09-25T03:33:44.370Z,1.63
2018-09-25T03:36:17.518Z,1.30
2018-09-25T03:38:50.442Z,1.00
2018-09-25T03:41:23.594Z,1.10
2018-09-25T03:43:56.494Z,1.37
2018-09-25T03:46:29.335Z,1.33
2018-09-25T03:49:02.889Z,1.97
2018-09-25T03:51:35.752Z,1.40
2018-09-25T03:54:08.595Z,1.27
2018-09-25T03:56:42.019Z,0.80
2018-09-25T03:59:15.325Z,1.70
2018-09-25T04:01:48.388Z,1.17
2018-09-25T04:04:21.350Z,1.97
2018-09-25T04:06:55.016Z,1.17
2018-09-25T04:09:28.090Z,1.20
2018-09-25T04:12:01.151Z,1.70
2018-09-25T04:14:34.347Z,1.17
2018-09-25T04:17:07.490Z,1.10
2018-09-25T04:19:40.523Z,1.90
2018-09-25T04:22:13.681Z,1.53
2018-09-25T04:24:46.637Z,1.77
2018-09-25T04:27:19.579Z,2.10
2018-09-25T04:29:53.125Z,3.00
2018-09-25T04:32:25.987Z,1.77
2018-09-25T04:34:59.100Z,1.40
2018-09-25T04:37:32.743Z,1.63
2018-09-25T04:40:06.110Z,1.30
2018-09-25T04:42:39.708Z,1.43
2018-09-25T04:45:12.936Z,2.13
2018-09-25T04:47:46.406Z,1.53
2018-09-25T04:50:19.315Z,1.60
2018-09-25T04:52:52.273Z,2.03
2018-09-25T04:55:25.555Z,2.00
2018-09-25T04:57:58.705Z,2.90
2018-09-25T05:00:31.851Z,2.40
2018-09-25T05:03:05.354Z,2.90
2018-09-25T05:05:38.676Z,2.60
2018-09-25T05:08:11.718Z,1.03
2018-09-25T05:10:45.224Z,1.40
2018-09-25T05:13:18.455Z,1.93
2018-09-25T05:15:52.126Z,1.93
2018-09-25T05:18:25.030Z,6.03
2018-09-25T05:20:58.054Z,2.40
2018-09-25T05:23:31.197Z,1.60
2018-09-25T05:26:04.359Z,2.10
2018-09-25T05:28:37.522Z,2.70
2018-09-25T05:31:10.478Z,2.77
2018-09-25T05:33:43.765Z,5.93
2018-09-25T05:36:16.969Z,2.50
2018-09-25T05:38:49.913Z,2.90
2018-09-25T05:41:22.935Z,3.37
2018-09-25T05:43:56.136Z,2.60
2018-09-25T05:46:29.794Z,1.87
2018-09-25T05:49:02.703Z,2.73
2018-09-25T05:51:36.344Z,2.00
2018-09-25T05:54:09.963Z,2.40
2018-09-25T05:56:42.909Z,2.83
2018-09-25T05:59:15.921Z,1.87
2018-09-25T06:01:49.091Z,1.40
2018-09-25T06:04:22.135Z,2.07
2018-09-25T06:06:55.257Z,1.50
2018-09-25T06:09:29.031Z,1.60
2018-09-25T06:12:03.025Z,2.00
2018-09-25T06:14:36.501Z,2.60
2018-09-25T06:17:09.527Z,1.70
2018-09-25T06:19:43.579Z,2.10
2018-09-25T06:22:17.257Z,1.33
2018-09-25T06:24:50.342Z,1.53
2018-09-25T06:27:23.506Z,2.10
2018-09-25T06:29:56.599Z,2.00
2018-09-25T06:32:29.763Z,1.93
2018-09-25T06:35:02.699Z,2.10
2018-09-25T06:37:35.561Z,1.57
2018-09-25T06:40:08.437Z,2.10
2018-09-25T06:42:41.440Z,1.50
2018-09-25T06:45:14.461Z,1.70
2018-09-25T06:47:47.451Z,2.13
2018-09-25T06:50:20.455Z,2.20
2018-09-25T06:52:53.878Z,1.20
2018-09-25T06:55:26.779Z,2.07
2018-09-25T06:57:59.963Z,1.70
2018-09-25T07:00:33.324Z,1.50
2018-09-25T07:03:06.261Z,1.97
2018-09-25T07:05:39.239Z,2.03
2018-09-25T07:08:12.305Z,1.20
2018-09-25T07:10:45.358Z,1.40
2018-09-25T07:13:18.479Z,1.30
2018-09-25T07:15:51.397Z,1.60
2018-09-25T07:18:25.446Z,1.80
2018-09-25T07:20:58.273Z,1.33
2018-09-25T07:23:31.372Z,1.63
2018-09-25T07:26:04.522Z,1.40
2018-09-25T07:28:37.709Z,1.47
2018-09-25T07:31:10.960Z,2.07
2018-09-25T07:33:44.004Z,1.33
2018-09-25T07:36:16.997Z,3.30
2018-09-25T07:38:50.082Z,1.53
2018-09-25T07:41:23.644Z,1.67
2018-09-25T07:43:57.115Z,1.80
2018-09-25T07:46:30.189Z,1.30
2018-09-25T07:49:03.162Z,1.20
2018-09-25T07:51:36.090Z,1.40
2018-09-25T07:54:09.971Z,1.40
2018-09-25T07:56:43.553Z,1.63
2018-09-25T07:59:16.608Z,1.60
2018-09-25T08:01:49.750Z,2.13
2018-09-25T08:04:23.118Z,1.50
2018-09-25T08:06:56.099Z,1.50
2018-09-25T08:09:29.913Z,1.47
2018-09-25T08:12:03.642Z,1.50
2018-09-25T08:14:37.298Z,1.50
2018-09-25T08:17:10.458Z,1.33
2018-09-25T08:19:43.313Z,1.30
2018-09-25T08:22:16.937Z,1.70
2018-09-25T08:24:49.982Z,1.47
2018-09-25T08:27:22.927Z,1.50
2018-09-25T08:29:55.862Z,1.37
2018-09-25T08:32:29.015Z,1.60
2018-09-25T08:35:02.504Z,1.30
2018-09-25T08:37:36.094Z,1.30
2018-09-25T08:40:09.135Z,1.10
2018-09-25T08:42:42.114Z,1.53
2018-09-25T08:45:15.870Z,1.20
2018-09-25T08:47:48.714Z,1.47
2018-09-25T08:50:22.447Z,1.00
2018-09-25T08:52:55.569Z,1.20
2018-09-25T08:55:28.691Z,0.80
2018-09-25T08:58:01.758Z,1.17
2018-09-25T09:00:34.824Z,1.20
2018-09-25T09:03:07.971Z,1.03
2018-09-25T09:05:42.087Z,1.07
2018-09-25T09:08:15.283Z,1.00
2018-09-25T09:10:48.435Z,1.50
2018-09-25T09:13:21.379Z,0.57
2018-09-25T09:15:54.615Z,1.10
2018-09-25T09:18:28.482Z,1.00
2018-09-25T09:21:01.445Z,1.03
2018-09-25T09:23:34.977Z,1.37
2018-09-25T09:26:07.968Z,1.20
2018-09-25T09:28:41.055Z,1.43
2018-09-25T09:31:13.917Z,1.53
2018-09-25T09:33:47.025Z,1.53
2018-09-25T09:36:20.992Z,0.70
2018-09-25T09:38:53.931Z,1.10
2018-09-25T09:41:28.103Z,0.87
2018-09-25T09:44:01.150Z,2.20
2018-09-25T09:46:34.018Z,1.03
2018-09-25T09:49:07.036Z,1.80
2018-09-25T09:51:46.984Z,0.90
2018-09-25T09:54:20.078Z,0.83
2018-09-25T09:56:52.989Z,1.10
2018-09-25T09:59:26.284Z,0.83
2018-09-25T10:01:59.482Z,0.97
2018-09-25T10:04:32.514Z,0.83
2018-09-25T10:07:05.548Z,1.00
2018-09-25T10:09:38.787Z,0.80
2018-09-25T10:12:11.960Z,1.00
2018-09-25T10:14:45.009Z,1.27
2018-09-25T10:17:18.010Z,1.10
2018-09-25T10:19:51.640Z,1.17
2018-09-25T10:22:25.336Z,1.10
2018-09-25T10:24:58.532Z,1.00
2018-09-25T10:27:32.155Z,0.87
2018-09-25T10:30:05.142Z,1.30
2018-09-25T10:32:38.267Z,1.00
2018-09-25T10:35:11.128Z,0.77
2018-09-25T10:37:44.650Z,1.00
2018-09-25T10:40:17.690Z,0.80
2018-09-25T10:42:51.562Z,1.20
2018-09-25T10:45:24.480Z,0.90
2018-09-25T10:47:57.526Z,1.40
2018-09-25T10:50:31.502Z,7.37
2018-09-25T10:53:04.437Z,1.17
2018-09-25T10:55:37.484Z,1.10
2018-09-25T10:58:12.453Z,0.90
2018-09-25T11:00:45.615Z,1.33
2018-09-25T11:03:18.895Z,1.03
2018-09-25T11:05:51.973Z,0.73
2018-09-25T11:08:24.918Z,0.80
2018-09-25T11:10:58.014Z,1.17
2018-09-25T11:13:30.985Z,0.63
2018-09-25T11:16:04.171Z,1.07
2018-09-25T11:18:37.447Z,0.90
2018-09-25T11:21:11.166Z,1.20
2018-09-25T11:23:44.439Z,0.90
2018-09-25T11:26:17.472Z,1.03
2018-09-25T11:28:51.105Z,1.00
2018-09-25T11:31:24.197Z,0.70
2018-09-25T11:33:57.043Z,1.00
2018-09-25T11:36:30.383Z,0.70
2018-09-25T11:39:03.439Z,1.23
2018-09-25T11:41:36.402Z,0.50
2018-09-25T11:44:09.489Z,1.00
2018-09-25T11:46:42.403Z,0.77
2018-09-25T11:49:15.339Z,0.90
2018-09-25T11:51:48.619Z,1.03
2018-09-25T11:54:21.786Z,1.00
2018-09-25T11:56:55.379Z,1.03
2018-09-25T11:59:28.598Z,0.70
2018-09-25T12:02:01.687Z,0.80
2018-09-25T12:04:35.685Z,0.93
2018-09-25T12:07:09.341Z,0.60
2018-09-25T12:09:43.320Z,0.73
2018-09-25T12:12:16.841Z,0.90
2018-09-25T12:14:49.750Z,0.70
2018-09-25T12:17:22.569Z,0.83
2018-09-25T12:19:55.480Z,0.73
2018-09-25T12:22:28.333Z,0.80
2018-09-25T12:25:01.235Z,0.73
2018-09-25T12:27:34.062Z,1.37
2018-09-25T12:30:06.941Z,1.13
2018-09-25T12:32:40.011Z,0.87
2018-09-25T12:35:13.198Z,0.90
2018-09-25T12:37:46.814Z,1.07
2018-09-25T12:40:19.802Z,1.40
2018-09-25T12:42:52.594Z,0.87
2018-09-25T12:45:26.246Z,0.73
2018-09-25T12:47:59.376Z,0.70
2018-09-25T12:50:32.414Z,1.00
2018-09-25T12:53:05.436Z,0.90
2018-09-25T12:55:38.427Z,0.80
2018-09-25T12:58:11.541Z,0.90
2018-09-25T13:00:44.935Z,0.70
2018-09-25T13:03:18.023Z,0.90
2018-09-25T13:05:51.644Z,0.70
2018-09-25T13:08:24.582Z,1.00
2018-09-25T13:10:57.582Z,1.10
2018-09-25T13:13:30.605Z,0.70
2018-09-25T13:16:03.990Z,1.10
2018-09-25T13:18:37.660Z,1.53
2018-09-25T13:21:11.242Z,0.80
2018-09-25T13:23:44.599Z,2.53
2018-09-25T13:26:17.722Z,1.50
2018-09-25T13:28:51.399Z,1.23
2018-09-25T13:31:24.378Z,0.90
2018-09-25T13:33:57.517Z,1.83
2018-09-25T13:36:31.242Z,1.90
2018-09-25T13:39:04.099Z,1.50
2018-09-25T13:41:37.026Z,1.20
2018-09-25T13:44:09.965Z,1.40
2018-09-25T13:46:42.895Z,1.30
2018-09-25T13:49:15.956Z,1.23
2018-09-25T13:51:48.874Z,1.00
2018-09-25T13:54:21.768Z,1.00
2018-09-25T13:56:54.619Z,0.90
2018-09-25T13:59:28.158Z,1.00
2018-09-25T14:02:01.683Z,1.00
2018-09-25T14:04:35.169Z,1.30
2018-09-25T14:07:08.125Z,0.90
2018-09-25T14:09:40.955Z,1.50
2018-09-25T14:12:13.788Z,1.27
2018-09-25T14:14:46.467Z,1.07
2018-09-25T14:17:19.314Z,1.00
2018-09-25T14:19:52.285Z,1.10
2018-09-25T14:22:26.352Z,1.10
2018-09-25T14:25:00.049Z,1.00
2018-09-25T14:27:33.434Z,0.97
2018-09-25T14:30:06.494Z,0.60
2018-09-25T14:32:39.440Z,1.10
2018-09-25T14:35:12.187Z,0.80
2018-09-25T14:37:45.259Z,1.20
2018-09-25T14:40:18.439Z,1.00
2018-09-25T14:42:51.649Z,0.80
2018-09-25T14:45:24.723Z,1.10
2018-09-25T14:47:57.869Z,0.83
2018-09-25T14:50:30.881Z,0.60
2018-09-25T14:53:04.400Z,0.77
2018-09-25T14:55:37.451Z,0.80
2018-09-25T14:58:10.676Z,0.63
2018-09-25T15:00:43.677Z,1.30
2018-09-25T15:03:16.926Z,1.40
2018-09-25T15:05:50.058Z,0.70
2018-09-25T15:08:23.238Z,1.43
2018-09-25T15:10:56.277Z,1.10
2018-09-25T15:13:29.387Z,0.80
2018-09-25T15:16:02.381Z,1.03
2018-09-25T15:18:35.439Z,0.93
2018-09-25T15:21:09.419Z,1.37
2018-09-25T15:23:42.259Z,1.27
2018-09-25T15:26:15.950Z,0.80
2018-09-25T15:28:49.159Z,1.40
2018-09-25T15:31:22.094Z,0.80
2018-09-25T15:33:55.049Z,1.07
2018-09-25T15:36:27.984Z,1.03
2018-09-25T15:39:00.723Z,1.30
2018-09-25T15:41:33.827Z,1.17
2018-09-25T15:44:06.676Z,1.10
2018-09-25T15:46:39.863Z,1.00
2018-09-25T15:49:12.861Z,1.10
2018-09-25T15:51:45.951Z,1.73
2018-09-25T15:54:19.022Z,0.80
2018-09-25T15:56:52.189Z,1.00
2018-09-25T15:59:26.713Z,1.03
2018-09-25T16:01:59.518Z,0.80
2018-09-25T16:04:32.986Z,1.30
2018-09-25T16:07:06.053Z,1.27
2018-09-25T16:09:39.168Z,1.40
2018-09-25T16:12:12.471Z,1.70
2018-09-25T16:14:45.434Z,1.23
2018-09-25T16:17:19.438Z,1.27
2018-09-25T16:19:53.381Z,1.40
2018-09-25T16:22:26.533Z,1.63
2018-09-25T16:25:00.206Z,1.60
2018-09-25T16:27:34.611Z,1.00
2018-09-25T16:30:07.592Z,1.30
2018-09-25T16:32:40.836Z,1.20
2018-09-25T16:35:14.071Z,2.03
2018-09-25T16:37:47.570Z,1.30
2018-09-25T16:40:20.721Z,1.70
2018-09-25T16:42:53.715Z,2.10
2018-09-25T16:45:26.708Z,2.13
2018-09-25T16:47:59.895Z,6.53
2018-09-25T16:50:33.082Z,7.33
2018-09-25T16:53:06.275Z,3.00
2018-09-25T16:55:39.601Z,4.63
2018-09-25T16:58:12.542Z,4.67
2018-09-25T17:00:45.618Z,2.27
2018-09-25T17:03:18.662Z,5.63
2018-09-25T17:05:51.762Z,7.50
2018-09-25T17:08:24.656Z,7.43
2018-09-25T17:10:57.894Z,1.90
2018-09-25T17:13:30.962Z,1.40
2018-09-25T17:16:03.811Z,1.50
2018-09-25T17:18:36.876Z,1.30
2018-09-25T17:21:09.861Z,1.07
2018-09-25T17:23:42.663Z,1.63
2018-09-25T17:26:15.714Z,1.10
2018-09-25T17:28:48.897Z,1.30
2018-09-25T17:31:22.098Z,1.53
2018-09-25T17:33:55.162Z,1.30
2018-09-25T17:36:28.284Z,2.00
2018-09-25T17:39:02.247Z,3.60
2018-09-25T17:41:35.335Z,3.10
2018-09-25T17:44:08.211Z,2.80
2018-09-25T17:46:41.222Z,2.33
2018-09-25T17:49:14.523Z,3.00
2018-09-25T17:51:47.595Z,2.07
2018-09-25T17:54:20.805Z,2.40
2018-09-25T17:56:53.927Z,2.73
2018-09-25T17:59:26.850Z,1.80
2018-09-25T18:02:00.142Z,1.97
2018-09-25T18:04:33.185Z,1.87
2018-09-25T18:07:06.146Z,1.67
2018-09-25T18:09:39.344Z,2.27
2018-09-25T18:12:12.607Z,1.90
2018-09-25T18:14:45.733Z,3.70
2018-09-25T18:17:18.983Z,3.83
2018-09-25T18:19:54.131Z,2.87
2018-09-25T18:22:27.315Z,1.87
2018-09-25T18:25:00.435Z,1.70
2018-09-25T18:27:33.908Z,1.67
2018-09-25T18:30:07.128Z,1.67
2018-09-25T18:32:40.430Z,1.70
2018-09-25T18:35:13.394Z,1.50
2018-09-25T18:37:48.568Z,1.40
2018-09-25T18:40:21.678Z,2.17
2018-09-25T18:42:54.580Z,1.57
2018-09-25T18:45:27.438Z,1.90
2018-09-25T18:48:00.559Z,1.50
2018-09-25T18:50:33.660Z,1.67
2018-09-25T18:53:06.615Z,1.80
2018-09-25T18:55:39.615Z,1.80
2018-09-25T18:58:12.870Z,2.23
2018-09-25T19:00:46.111Z,1.43
2018-09-25T19:03:19.562Z,1.93
2018-09-25T19:05:53.069Z,1.70
2018-09-25T19:08:26.213Z,1.83
2018-09-25T19:10:59.306Z,2.10
2018-09-25T19:13:32.310Z,1.67
2018-09-25T19:16:05.490Z,1.63
2018-09-25T19:18:38.607Z,1.90
2018-09-25T19:21:11.370Z,1.80
2018-09-25T19:23:44.394Z,2.50
2018-09-25T19:26:17.495Z,2.53
2018-09-25T19:28:50.403Z,2.67
2018-09-25T19:31:23.470Z,2.70
2018-09-25T19:33:56.520Z,1.97
2018-09-25T19:36:29.752Z,1.70
2018-09-25T19:39:02.933Z,2.03
2018-09-25T19:41:36.028Z,2.20
2018-09-25T19:44:09.330Z,1.90
2018-09-25T19:46:43.350Z,1.90
2018-09-25T19:49:16.231Z,1.60
2018-09-25T19:51:49.756Z,1.83
2018-09-25T19:54:29.059Z,2.10
2018-09-25T19:57:02.633Z,1.60
2018-09-25T19:59:35.653Z,1.73
2018-09-25T20:02:08.451Z,1.67
2018-09-25T20:04:41.461Z,1.97
2018-09-25T20:07:14.711Z,2.07
2018-09-25T20:09:47.805Z,2.00
2018-09-25T20:12:20.582Z,2.17
2018-09-25T20:14:54.136Z,2.90
2018-09-25T20:17:27.094Z,2.17
2018-09-25T20:19:59.877Z,2.37
2018-09-25T20:22:33.342Z,2.93
2018-09-25T20:25:06.177Z,2.40
2018-09-25T20:27:38.962Z,2.40
2018-09-25T20:30:11.701Z,2.63
2018-09-25T20:32:44.607Z,2.07
2018-09-25T20:35:17.335Z,2.53
2018-09-25T20:37:50.251Z,2.47
2018-09-25T20:40:23.054Z,2.57
2018-09-25T20:42:55.870Z,2.60
2018-09-25T20:45:28.668Z,2.50
2018-09-25T20:48:01.471Z,2.80
2018-09-25T20:50:34.308Z,2.23
2018-09-25T20:53:07.288Z,2.63
2018-09-25T20:55:40.282Z,3.53
2018-09-25T20:58:13.189Z,2.60
2018-09-25T21:00:46.179Z,2.20
2018-09-25T21:03:19.390Z,2.10
2018-09-25T21:05:52.547Z,2.40
2018-09-25T21:08:25.376Z,2.53
2018-09-25T21:10:58.207Z,2.30
2018-09-25T21:13:31.042Z,1.90
2018-09-25T21:16:04.057Z,2.00
2018-09-25T21:18:36.954Z,2.47
2018-09-25T21:21:10.252Z,2.10
2018-09-25T21:23:44.438Z,1.60
2018-09-25T21:26:17.609Z,1.60
2018-09-25T21:28:50.767Z,1.80
2018-09-25T21:31:24.167Z,2.50
2018-09-25T21:33:57.295Z,1.80
2018-09-25T21:36:30.219Z,1.93
2018-09-25T21:39:03.096Z,2.03
2018-09-25T21:41:35.979Z,1.90
2018-09-25T21:44:08.894Z,1.70
2018-09-25T21:46:42.040Z,1.90
2018-09-25T21:49:14.917Z,2.37
2018-09-25T21:51:48.011Z,2.03
2018-09-25T21:54:21.109Z,1.87
2018-09-25T21:56:54.342Z,1.60
2018-09-25T21:59:27.311Z,1.93
2018-09-25T22:02:00.234Z,2.47
2018-09-25T22:04:33.332Z,1.53
2018-09-25T22:07:06.398Z,1.30
2018-09-25T22:09:39.161Z,1.67
2018-09-25T22:12:12.242Z,1.57
2018-09-25T22:14:45.945Z,1.73
2018-09-25T22:17:18.837Z,2.20
2018-09-25T22:19:51.754Z,1.97
2018-09-25T22:22:24.559Z,1.60
2018-09-25T22:24:57.724Z,1.60
2018-09-25T22:27:30.931Z,1.77
2018-09-25T22:30:03.896Z,1.63
2018-09-25T22:32:37.167Z,2.20
2018-09-25T22:35:10.344Z,2.00
2018-09-25T22:37:44.025Z,2.00
2018-09-25T22:40:16.912Z,1.90
2018-09-25T22:42:49.921Z,2.10
2018-09-25T22:45:23.191Z,2.07
2018-09-25T22:47:56.860Z,1.10
2018-09-25T22:50:29.674Z,2.30
2018-09-25T22:53:02.686Z,1.83
2018-09-25T22:55:35.742Z,2.90
2018-09-25T22:58:08.651Z,2.40
2018-09-25T23:00:41.677Z,3.07
2018-09-25T23:03:14.709Z,3.03
2018-09-25T23:05:47.812Z,2.17
2018-09-25T23:08:21.073Z,2.60
2018-09-25T23:10:54.207Z,2.80
2018-09-25T23:13:27.358Z,2.80
2018-09-25T23:16:00.251Z,3.10
2018-09-25T23:18:34.595Z,2.70
2018-09-25T23:21:07.649Z,3.00
2018-09-25T23:23:40.799Z,3.00
2018-09-25T23:26:14.441Z,2.80
2018-09-25T23:28:48.043Z,3.77
2018-09-25T23:31:20.951Z,3.53
2018-09-25T23:33:54.477Z,4.07
2018-09-25T23:36:27.787Z,3.40
2018-09-25T23:39:00.841Z,4.10
2018-09-25T23:43:35.314Z,3.87
2018-09-25T23:47:11.048Z,2.43
2018-09-25T23:49:57.962Z,4.30
2018-09-25T23:54:33.605Z,3.87
2018-09-25T23:57:06.676Z,4.20
2018-09-25T23:59:42.125Z,4.60
